Ariel, Mississippi
Current Conditions -  °F | °C
As of 1:53 PM on Sunday 23 Nov 2014 (Local Time) from KMCB Reporting Station
Overcast Overcast  
Wind Chill: 21°   Ceiling: 3300
Heat Index: 21°   Visibility: 10mi
Dew Point: 15°   Wind: 12mph
Humidity: 68%   Direction: 200°SSW
Pressure: 29.57"   Gusts: 24mph
Location:  31.1819°N, 90.9008°W
Report Text: KMCB 231953Z AUTO 20010G21KT 10SM SCT025 BKN033 OVC041 21/15 A2957 RMK AO2 SLP009 T02110150
Loading
Personal Weather Stations






























Interactive Weather Map New forecast layout! Learn more

10-Day Weather Forecast

Advertisements
Track Severe Weather on mobile